Ayamonte, Spain
Current Conditions -  °F | °C
As of 2:00 AM on Wednesday 28 Jan 2015 (Local Time) from LPFR Reporting Station
Clear Clear  
Wind Chill: 48°   Ceiling: Unl
Heat Index: 48°   Visibility: 6mi
Dew Point: 41°   Wind: 3mph
Humidity: 76%   Direction: 290°WNW
Pressure: 30.33"   Gusts: NA
Location:  37.21°N, 7.41°W
Report Text: LPFR 280100Z 29003KT 260V320 CAVOK 09/05 Q1027
Loading
Personal Weather Stations






























Interactive Weather Map New forecast layout! Learn more

10-Day Weather Forecast

Advertisements
Track Severe Weather on mobile